sensor_id;sensor_type;location;lat;lon;timestamp;P1;durP1;ratioP1;P2;durP2;ratioP2
19032;SDS011;9649;51.042;13.804;2023-08-20T00:04:09;11.52;;;9.82;;
19032;SDS011;9649;51.042;13.804;2023-08-20T00:09:13;14.38;;;10.13;;
19032;SDS011;9649;51.042;13.804;2023-08-20T00:14:16;15.93;;;9.98;;
19032;SDS011;9649;51.042;13.804;2023-08-20T00:19:21;11.13;;;9.68;;
19032;SDS011;9649;51.042;13.804;2023-08-20T00:24:24;14.40;;;9.90;;
19032;SDS011;9649;51.042;13.804;2023-08-20T00:29:27;15.63;;;10.55;;
19032;SDS011;9649;51.042;13.804;2023-08-20T00:34:32;11.77;;;10.02;;
19032;SDS011;9649;51.042;13.804;2023-08-20T00:39:34;12.93;;;10.55;;
19032;SDS011;9649;51.042;13.804;2023-08-20T00:44:37;12.55;;;9.90;;
19032;SDS011;9649;51.042;13.804;2023-08-20T00:49:43;11.20;;;9.45;;
19032;SDS011;9649;51.042;13.804;2023-08-20T00:54:47;14.52;;;9.48;;
19032;SDS011;9649;51.042;13.804;2023-08-20T00:59:52;13.35;;;10.00;;
19032;SDS011;9649;51.042;13.804;2023-08-20T01:04:59;11.38;;;9.48;;
19032;SDS011;9649;51.042;13.804;2023-08-20T01:10:04;14.98;;;10.10;;
19032;SDS011;9649;51.042;13.804;2023-08-20T01:15:16;12.57;;;9.27;;
19032;SDS011;9649;51.042;13.804;2023-08-20T01:20:20;10.02;;;9.02;;
19032;SDS011;9649;51.042;13.804;2023-08-20T01:25:30;10.95;;;9.60;;
19032;SDS011;9649;51.042;13.804;2023-08-20T01:30:46;13.73;;;9.02;;
19032;SDS011;9649;51.042;13.804;2023-08-20T01:35:50;11.93;;;9.48;;
19032;SDS011;9649;51.042;13.804;2023-08-20T01:40:53;15.98;;;9.25;;
19032;SDS011;9649;51.042;13.804;2023-08-20T01:45:59;10.77;;;9.05;;
19032;SDS011;9649;51.042;13.804;2023-08-20T01:51:02;10.13;;;8.82;;
19032;SDS011;9649;51.042;13.804;2023-08-20T01:56:10;10.15;;;8.77;;
19032;SDS011;9649;51.042;13.804;2023-08-20T02:01:14;11.18;;;8.73;;
19032;SDS011;9649;51.042;13.804;2023-08-20T02:06:17;13.32;;;8.38;;
19032;SDS011;9649;51.042;13.804;2023-08-20T02:11:20;10.90;;;8.75;;
19032;SDS011;9649;51.042;13.804;2023-08-20T02:16:24;10.55;;;9.10;;
19032;SDS011;9649;51.042;13.804;2023-08-20T02:21:27;12.18;;;8.98;;
19032;SDS011;9649;51.042;13.804;2023-08-20T02:26:30;11.13;;;9.40;;
19032;SDS011;9649;51.042;13.804;2023-08-20T02:31:34;9.75;;;8.65;;
19032;SDS011;9649;51.042;13.804;2023-08-20T02:36:37;10.23;;;9.23;;
19032;SDS011;9649;51.042;13.804;2023-08-20T02:41:40;14.35;;;9.32;;
19032;SDS011;9649;51.042;13.804;2023-08-20T02:46:44;11.82;;;9.55;;
19032;SDS011;9649;51.042;13.804;2023-08-20T02:51:47;10.52;;;9.50;;
19032;SDS011;9649;51.042;13.804;2023-08-20T02:56:50;12.32;;;10.10;;
19032;SDS011;9649;51.042;13.804;2023-08-20T03:01:54;14.25;;;9.57;;
19032;SDS011;9649;51.042;13.804;2023-08-20T03:06:57;13.20;;;9.55;;
19032;SDS011;9649;51.042;13.804;2023-08-20T03:12:00;10.23;;;9.15;;
19032;SDS011;9649;51.042;13.804;2023-08-20T03:17:05;10.82;;;9.68;;
19032;SDS011;9649;51.042;13.804;2023-08-20T03:22:07;14.48;;;10.07;;
19032;SDS011;9649;51.042;13.804;2023-08-20T03:27:10;10.70;;;9.30;;
19032;SDS011;9649;51.042;13.804;2023-08-20T03:32:14;15.25;;;10.02;;
19032;SDS011;9649;51.042;13.804;2023-08-20T03:37:18;13.02;;;10.23;;
19032;SDS011;9649;51.042;13.804;2023-08-20T03:42:20;12.18;;;9.57;;
19032;SDS011;9649;51.042;13.804;2023-08-20T03:47:25;11.48;;;10.05;;
19032;SDS011;9649;51.042;13.804;2023-08-20T03:52:27;13.73;;;9.65;;
19032;SDS011;9649;51.042;13.804;2023-08-20T03:57:30;13.55;;;9.73;;
19032;SDS011;9649;51.042;13.804;2023-08-20T04:02:35;12.30;;;9.90;;
19032;SDS011;9649;51.042;13.804;2023-08-20T04:07:38;14.38;;;10.13;;
19032;SDS011;9649;51.042;13.804;2023-08-20T04:12:41;12.75;;;10.68;;
19032;SDS011;9649;51.042;13.804;2023-08-20T04:17:45;13.52;;;9.98;;
19032;SDS011;9649;51.042;13.804;2023-08-20T04:22:48;16.20;;;9.73;;
19032;SDS011;9649;51.042;13.804;2023-08-20T04:27:51;16.27;;;10.05;;
19032;SDS011;9649;51.042;13.804;2023-08-20T04:32:55;13.80;;;10.20;;
19032;SDS011;9649;51.042;13.804;2023-08-20T04:37:58;12.68;;;10.15;;
19032;SDS011;9649;51.042;13.804;2023-08-20T04:43:01;14.57;;;10.55;;
19032;SDS011;9649;51.042;13.804;2023-08-20T04:48:06;10.90;;;9.77;;
19032;SDS011;9649;51.042;13.804;2023-08-20T04:53:09;13.52;;;9.90;;
19032;SDS011;9649;51.042;13.804;2023-08-20T04:58:11;11.13;;;9.55;;
19032;SDS011;9649;51.042;13.804;2023-08-20T05:03:16;12.25;;;9.48;;
19032;SDS011;9649;51.042;13.804;2023-08-20T05:08:19;14.88;;;9.50;;
19032;SDS011;9649;51.042;13.804;2023-08-20T05:13:22;11.30;;;9.77;;
19032;SDS011;9649;51.042;13.804;2023-08-20T05:18:26;12.88;;;8.82;;
19032;SDS011;9649;51.042;13.804;2023-08-20T05:23:29;10.05;;;8.98;;
19032;SDS011;9649;51.042;13.804;2023-08-20T05:28:32;13.68;;;9.52;;
19032;SDS011;9649;51.042;13.804;2023-08-20T05:33:36;11.73;;;9.25;;
19032;SDS011;9649;51.042;13.804;2023-08-20T05:38:39;11.82;;;9.35;;
19032;SDS011;9649;51.042;13.804;2023-08-20T05:43:43;10.23;;;8.38;;
19032;SDS011;9649;51.042;13.804;2023-08-20T05:48:47;10.38;;;7.72;;
19032;SDS011;9649;51.042;13.804;2023-08-20T05:53:52;11.68;;;7.10;;
19032;SDS011;9649;51.042;13.804;2023-08-20T05:58:55;10.65;;;7.38;;
19032;SDS011;9649;51.042;13.804;2023-08-20T06:04:00;10.23;;;7.40;;
19032;SDS011;9649;51.042;13.804;2023-08-20T06:09:03;14.85;;;7.15;;
19032;SDS011;9649;51.042;13.804;2023-08-20T06:14:10;10.98;;;7.22;;
19032;SDS011;9649;51.042;13.804;2023-08-20T06:19:14;13.18;;;7.03;;
19032;SDS011;9649;51.042;13.804;2023-08-20T06:24:17;10.40;;;7.30;;
19032;SDS011;9649;51.042;13.804;2023-08-20T06:29:20;10.60;;;6.68;;
19032;SDS011;9649;51.042;13.804;2023-08-20T06:34:25;10.93;;;6.60;;
19032;SDS011;9649;51.042;13.804;2023-08-20T06:39:28;10.05;;;6.40;;
19032;SDS011;9649;51.042;13.804;2023-08-20T06:44:30;12.45;;;6.75;;
19032;SDS011;9649;51.042;13.804;2023-08-20T06:49:35;10.95;;;7.07;;
19032;SDS011;9649;51.042;13.804;2023-08-20T06:54:37;9.93;;;6.72;;
19032;SDS011;9649;51.042;13.804;2023-08-20T06:59:40;10.07;;;6.72;;
19032;SDS011;9649;51.042;13.804;2023-08-20T07:04:46;11.35;;;7.00;;
19032;SDS011;9649;51.042;13.804;2023-08-20T07:09:49;10.88;;;7.50;;
19032;SDS011;9649;51.042;13.804;2023-08-20T07:14:51;10.68;;;6.72;;
19032;SDS011;9649;51.042;13.804;2023-08-20T07:19:55;9.02;;;7.07;;
19032;SDS011;9649;51.042;13.804;2023-08-20T07:24:58;8.20;;;7.00;;
19032;SDS011;9649;51.042;13.804;2023-08-20T07:30:01;11.02;;;6.90;;
19032;SDS011;9649;51.042;13.804;2023-08-20T07:35:06;10.27;;;7.03;;
19032;SDS011;9649;51.042;13.804;2023-08-20T07:40:12;10.60;;;6.53;;
19032;SDS011;9649;51.042;13.804;2023-08-20T07:45:16;7.93;;;6.90;;
19032;SDS011;9649;51.042;13.804;2023-08-20T07:50:21;10.70;;;6.68;;
19032;SDS011;9649;51.042;13.804;2023-08-20T07:55:24;9.98;;;7.13;;
19032;SDS011;9649;51.042;13.804;2023-08-20T08:00:26;8.20;;;6.22;;
19032;SDS011;9649;51.042;13.804;2023-08-20T08:05:31;8.68;;;6.45;;
19032;SDS011;9649;51.042;13.804;2023-08-20T08:10:33;8.88;;;6.85;;
19032;SDS011;9649;51.042;13.804;2023-08-20T08:15:37;8.88;;;6.50;;
19032;SDS011;9649;51.042;13.804;2023-08-20T08:20:41;10.73;;;6.53;;
19032;SDS011;9649;51.042;13.804;2023-08-20T08:25:44;7.53;;;6.68;;
19032;SDS011;9649;51.042;13.804;2023-08-20T08:30:47;8.02;;;6.40;;
19032;SDS011;9649;51.042;13.804;2023-08-20T08:35:51;14.32;;;6.65;;
19032;SDS011;9649;51.042;13.804;2023-08-20T08:40:54;9.45;;;6.07;;
19032;SDS011;9649;51.042;13.804;2023-08-20T08:45:57;11.55;;;6.30;;
19032;SDS011;9649;51.042;13.804;2023-08-20T08:51:04;11.02;;;6.00;;
19032;SDS011;9649;51.042;13.804;2023-08-20T08:56:07;8.18;;;6.10;;
19032;SDS011;9649;51.042;13.804;2023-08-20T09:01:10;7.65;;;6.00;;
19032;SDS011;9649;51.042;13.804;2023-08-20T09:06:14;7.80;;;6.15;;
19032;SDS011;9649;51.042;13.804;2023-08-20T09:11:17;9.20;;;5.65;;
19032;SDS011;9649;51.042;13.804;2023-08-20T09:16:19;8.25;;;5.50;;
19032;SDS011;9649;51.042;13.804;2023-08-20T09:21:26;7.25;;;6.00;;
19032;SDS011;9649;51.042;13.804;2023-08-20T09:26:31;12.80;;;6.72;;
19032;SDS011;9649;51.042;13.804;2023-08-20T09:31:37;9.85;;;6.90;;
19032;SDS011;9649;51.042;13.804;2023-08-20T09:36:42;8.27;;;7.05;;
19032;SDS011;9649;51.042;13.804;2023-08-20T09:41:45;9.85;;;7.32;;
19032;SDS011;9649;51.042;13.804;2023-08-20T09:46:57;8.00;;;6.15;;
19032;SDS011;9649;51.042;13.804;2023-08-20T09:52:46;7.53;;;6.15;;
19032;SDS011;9649;51.042;13.804;2023-08-20T09:57:57;7.85;;;6.00;;
19032;SDS011;9649;51.042;13.804;2023-08-20T10:03:01;9.60;;;6.70;;
19032;SDS011;9649;51.042;13.804;2023-08-20T10:08:09;6.90;;;5.90;;
19032;SDS011;9649;51.042;13.804;2023-08-20T10:13:14;7.10;;;6.40;;
19032;SDS011;9649;51.042;13.804;2023-08-20T10:18:19;8.75;;;6.85;;
19032;SDS011;9649;51.042;13.804;2023-08-20T10:23:24;12.02;;;7.30;;
19032;SDS011;9649;51.042;13.804;2023-08-20T10:28:27;8.57;;;6.30;;
19032;SDS011;9649;51.042;13.804;2023-08-20T10:33:31;8.02;;;5.35;;
19032;SDS011;9649;51.042;13.804;2023-08-20T10:38:37;5.65;;;5.07;;
19032;SDS011;9649;51.042;13.804;2023-08-20T10:43:40;6.05;;;4.47;;
19032;SDS011;9649;51.042;13.804;2023-08-20T10:48:50;4.72;;;4.32;;
19032;SDS011;9649;51.042;13.804;2023-08-20T10:54:05;5.93;;;4.68;;
19032;SDS011;9649;51.042;13.804;2023-08-20T10:59:15;6.28;;;4.05;;
19032;SDS011;9649;51.042;13.804;2023-08-20T11:04:18;7.32;;;4.18;;
19032;SDS011;9649;51.042;13.804;2023-08-20T11:09:24;4.40;;;4.00;;
19032;SDS011;9649;51.042;13.804;2023-08-20T11:14:28;5.53;;;4.18;;
19032;SDS011;9649;51.042;13.804;2023-08-20T11:19:31;5.03;;;4.07;;
19032;SDS011;9649;51.042;13.804;2023-08-20T11:24:35;6.50;;;4.28;;
19032;SDS011;9649;51.042;13.804;2023-08-20T11:29:41;5.03;;;3.83;;
19032;SDS011;9649;51.042;13.804;2023-08-20T11:34:45;4.25;;;3.85;;
19032;SDS011;9649;51.042;13.804;2023-08-20T11:39:49;5.32;;;3.85;;
19032;SDS011;9649;51.042;13.804;2023-08-20T11:44:55;3.90;;;3.50;;
19032;SDS011;9649;51.042;13.804;2023-08-20T11:50:02;4.28;;;3.40;;
19032;SDS011;9649;51.042;13.804;2023-08-20T11:55:07;4.95;;;3.50;;
19032;SDS011;9649;51.042;13.804;2023-08-20T12:00:23;4.43;;;3.70;;
19032;SDS011;9649;51.042;13.804;2023-08-20T12:05:27;5.93;;;3.80;;
19032;SDS011;9649;51.042;13.804;2023-08-20T12:10:32;4.03;;;3.63;;
19032;SDS011;9649;51.042;13.804;2023-08-20T12:15:35;5.35;;;3.35;;
19032;SDS011;9649;51.042;13.804;2023-08-20T12:20:38;3.58;;;3.28;;
19032;SDS011;9649;51.042;13.804;2023-08-20T12:25:42;4.47;;;3.15;;
19032;SDS011;9649;51.042;13.804;2023-08-20T12:30:45;4.28;;;3.20;;
19032;SDS011;9649;51.042;13.804;2023-08-20T12:35:48;4.78;;;3.58;;
19032;SDS011;9649;51.042;13.804;2023-08-20T12:40:55;4.15;;;3.50;;
19032;SDS011;9649;51.042;13.804;2023-08-20T12:45:58;3.88;;;3.47;;
19032;SDS011;9649;51.042;13.804;2023-08-20T12:51:01;4.18;;;3.55;;
19032;SDS011;9649;51.042;13.804;2023-08-20T12:56:05;5.00;;;3.75;;
19032;SDS011;9649;51.042;13.804;2023-08-20T13:01:08;5.20;;;3.50;;
19032;SDS011;9649;51.042;13.804;2023-08-20T13:06:12;8.65;;;3.95;;
19032;SDS011;9649;51.042;13.804;2023-08-20T13:11:17;4.43;;;3.10;;
19032;SDS011;9649;51.042;13.804;2023-08-20T13:16:22;4.32;;;3.58;;
19032;SDS011;9649;51.042;13.804;2023-08-20T13:21:25;4.43;;;3.65;;
19032;SDS011;9649;51.042;13.804;2023-08-20T13:26:29;6.03;;;3.63;;
19032;SDS011;9649;51.042;13.804;2023-08-20T13:31:32;4.43;;;3.15;;
19032;SDS011;9649;51.042;13.804;2023-08-20T13:36:37;4.93;;;3.50;;
19032;SDS011;9649;51.042;13.804;2023-08-20T13:41:41;6.55;;;4.10;;
19032;SDS011;9649;51.042;13.804;2023-08-20T13:46:44;4.25;;;3.78;;
19032;SDS011;9649;51.042;13.804;2023-08-20T13:51:47;4.68;;;3.88;;
19032;SDS011;9649;51.042;13.804;2023-08-20T13:56:51;7.75;;;4.22;;
19032;SDS011;9649;51.042;13.804;2023-08-20T14:01:54;4.28;;;3.60;;
19032;SDS011;9649;51.042;13.804;2023-08-20T14:07:24;5.90;;;3.78;;
19032;SDS011;9649;51.042;13.804;2023-08-20T14:12:29;3.72;;;3.40;;
19032;SDS011;9649;51.042;13.804;2023-08-20T14:17:32;5.43;;;4.00;;
19032;SDS011;9649;51.042;13.804;2023-08-20T14:22:35;4.75;;;3.70;;
19032;SDS011;9649;51.042;13.804;2023-08-20T14:27:40;7.78;;;4.78;;
19032;SDS011;9649;51.042;13.804;2023-08-20T14:32:43;5.88;;;3.40;;
19032;SDS011;9649;51.042;13.804;2023-08-20T14:37:46;6.18;;;3.90;;
19032;SDS011;9649;51.042;13.804;2023-08-20T14:42:50;5.20;;;3.90;;
19032;SDS011;9649;51.042;13.804;2023-08-20T14:47:53;6.88;;;4.13;;
19032;SDS011;9649;51.042;13.804;2023-08-20T14:52:56;7.25;;;3.90;;
19032;SDS011;9649;51.042;13.804;2023-08-20T14:58:01;4.07;;;3.78;;
19032;SDS011;9649;51.042;13.804;2023-08-20T15:03:05;7.22;;;3.80;;
19032;SDS011;9649;51.042;13.804;2023-08-20T15:08:08;6.28;;;3.78;;
19032;SDS011;9649;51.042;13.804;2023-08-20T15:13:13;5.70;;;4.00;;
19032;SDS011;9649;51.042;13.804;2023-08-20T15:18:16;6.55;;;4.20;;
19032;SDS011;9649;51.042;13.804;2023-08-20T15:23:18;5.95;;;4.25;;
19032;SDS011;9649;51.042;13.804;2023-08-20T15:28:23;6.07;;;4.35;;
19032;SDS011;9649;51.042;13.804;2023-08-20T15:33:27;5.47;;;3.95;;
19032;SDS011;9649;51.042;13.804;2023-08-20T15:38:31;4.72;;;3.83;;
19032;SDS011;9649;51.042;13.804;2023-08-20T15:43:35;4.88;;;4.20;;
19032;SDS011;9649;51.042;13.804;2023-08-20T15:48:38;6.90;;;4.75;;
19032;SDS011;9649;51.042;13.804;2023-08-20T15:53:41;5.95;;;4.40;;
19032;SDS011;9649;51.042;13.804;2023-08-20T15:58:45;5.18;;;4.30;;
19032;SDS011;9649;51.042;13.804;2023-08-20T16:03:49;6.97;;;4.70;;
19032;SDS011;9649;51.042;13.804;2023-08-20T16:08:52;7.65;;;4.55;;
19032;SDS011;9649;51.042;13.804;2023-08-20T16:13:59;5.50;;;4.90;;
19032;SDS011;9649;51.042;13.804;2023-08-20T16:19:02;8.30;;;4.70;;
19032;SDS011;9649;51.042;13.804;2023-08-20T16:24:05;7.55;;;4.38;;
19032;SDS011;9649;51.042;13.804;2023-08-20T16:29:10;5.43;;;3.55;;
19032;SDS011;9649;51.042;13.804;2023-08-20T16:34:13;6.90;;;3.50;;
19032;SDS011;9649;51.042;13.804;2023-08-20T16:39:16;5.43;;;3.70;;
19032;SDS011;9649;51.042;13.804;2023-08-20T16:44:20;7.03;;;3.58;;
19032;SDS011;9649;51.042;13.804;2023-08-20T16:49:23;7.10;;;3.13;;
19032;SDS011;9649;51.042;13.804;2023-08-20T16:54:26;6.40;;;2.88;;
19032;SDS011;9649;51.042;13.804;2023-08-20T16:59:32;3.50;;;3.03;;
19032;SDS011;9649;51.042;13.804;2023-08-20T17:04:37;6.68;;;3.30;;
19032;SDS011;9649;51.042;13.804;2023-08-20T17:09:40;3.85;;;3.03;;
19032;SDS011;9649;51.042;13.804;2023-08-20T17:14:45;4.22;;;2.80;;
19032;SDS011;9649;51.042;13.804;2023-08-20T17:19:49;5.93;;;3.00;;
19032;SDS011;9649;51.042;13.804;2023-08-20T17:24:52;3.75;;;2.88;;
19032;SDS011;9649;51.042;13.804;2023-08-20T17:29:58;6.63;;;2.80;;
19032;SDS011;9649;51.042;13.804;2023-08-20T17:35:05;5.63;;;2.80;;
19032;SDS011;9649;51.042;13.804;2023-08-20T17:40:12;4.28;;;2.78;;
19032;SDS011;9649;51.042;13.804;2023-08-20T17:45:20;4.65;;;2.67;;
19032;SDS011;9649;51.042;13.804;2023-08-20T17:50:28;4.20;;;2.90;;
19032;SDS011;9649;51.042;13.804;2023-08-20T17:55:34;3.83;;;3.20;;
19032;SDS011;9649;51.042;13.804;2023-08-20T18:00:40;7.55;;;4.95;;
19032;SDS011;9649;51.042;13.804;2023-08-20T18:05:48;6.65;;;3.88;;
19032;SDS011;9649;51.042;13.804;2023-08-20T18:10:53;9.63;;;4.40;;
19032;SDS011;9649;51.042;13.804;2023-08-20T18:16:01;9.15;;;4.10;;
19032;SDS011;9649;51.042;13.804;2023-08-20T18:21:06;7.65;;;4.50;;
19032;SDS011;9649;51.042;13.804;2023-08-20T18:26:09;9.40;;;4.28;;
19032;SDS011;9649;51.042;13.804;2023-08-20T18:31:13;6.47;;;4.22;;
19032;SDS011;9649;51.042;13.804;2023-08-20T18:36:36;7.15;;;4.53;;
19032;SDS011;9649;51.042;13.804;2023-08-20T18:41:44;8.95;;;4.07;;
19032;SDS011;9649;51.042;13.804;2023-08-20T18:46:48;11.38;;;5.00;;
19032;SDS011;9649;51.042;13.804;2023-08-20T18:51:52;7.10;;;4.60;;
19032;SDS011;9649;51.042;13.804;2023-08-20T18:56:59;7.93;;;5.25;;
19032;SDS011;9649;51.042;13.804;2023-08-20T19:02:06;7.70;;;4.97;;
19032;SDS011;9649;51.042;13.804;2023-08-20T19:07:08;10.90;;;5.18;;
19032;SDS011;9649;51.042;13.804;2023-08-20T19:12:11;9.63;;;5.00;;
19032;SDS011;9649;51.042;13.804;2023-08-20T19:17:16;7.65;;;4.97;;
19032;SDS011;9649;51.042;13.804;2023-08-20T19:22:18;8.90;;;4.90;;
19032;SDS011;9649;51.042;13.804;2023-08-20T19:27:21;10.35;;;5.38;;
19032;SDS011;9649;51.042;13.804;2023-08-20T19:32:26;9.82;;;5.03;;
19032;SDS011;9649;51.042;13.804;2023-08-20T19:37:30;7.85;;;4.95;;
19032;SDS011;9649;51.042;13.804;2023-08-20T19:42:35;11.25;;;5.03;;
19032;SDS011;9649;51.042;13.804;2023-08-20T19:47:50;13.02;;;6.78;;
19032;SDS011;9649;51.042;13.804;2023-08-20T19:52:53;10.95;;;5.60;;
19032;SDS011;9649;51.042;13.804;2023-08-20T19:57:58;9.77;;;5.05;;
19032;SDS011;9649;51.042;13.804;2023-08-20T20:03:06;9.43;;;5.50;;
19032;SDS011;9649;51.042;13.804;2023-08-20T20:08:11;12.25;;;5.72;;
19032;SDS011;9649;51.042;13.804;2023-08-20T20:13:14;10.32;;;5.43;;
19032;SDS011;9649;51.042;13.804;2023-08-20T20:18:18;8.10;;;5.05;;
19032;SDS011;9649;51.042;13.804;2023-08-20T20:23:27;7.43;;;4.60;;
19032;SDS011;9649;51.042;13.804;2023-08-20T20:28:30;8.20;;;4.90;;
19032;SDS011;9649;51.042;13.804;2023-08-20T20:33:34;6.85;;;5.57;;
19032;SDS011;9649;51.042;13.804;2023-08-20T20:38:37;11.75;;;7.20;;
19032;SDS011;9649;51.042;13.804;2023-08-20T20:43:42;6.82;;;5.25;;
19032;SDS011;9649;51.042;13.804;2023-08-20T20:48:46;10.73;;;5.95;;
19032;SDS011;9649;51.042;13.804;2023-08-20T20:53:49;17.02;;;6.68;;
19032;SDS011;9649;51.042;13.804;2023-08-20T20:58:54;6.97;;;5.90;;
19032;SDS011;9649;51.042;13.804;2023-08-20T21:03:59;9.10;;;6.53;;
19032;SDS011;9649;51.042;13.804;2023-08-20T21:09:02;10.50;;;6.22;;
19032;SDS011;9649;51.042;13.804;2023-08-20T21:14:05;13.50;;;6.25;;
19032;SDS011;9649;51.042;13.804;2023-08-20T21:19:09;9.02;;;6.10;;
19032;SDS011;9649;51.042;13.804;2023-08-20T21:24:12;10.35;;;5.97;;
19032;SDS011;9649;51.042;13.804;2023-08-20T21:29:15;13.98;;;6.40;;
19032;SDS011;9649;51.042;13.804;2023-08-20T21:34:19;11.15;;;6.07;;
19032;SDS011;9649;51.042;13.804;2023-08-20T21:39:22;9.85;;;6.63;;
19032;SDS011;9649;51.042;13.804;2023-08-20T21:44:25;10.90;;;6.45;;
19032;SDS011;9649;51.042;13.804;2023-08-20T21:49:29;10.55;;;7.03;;
19032;SDS011;9649;51.042;13.804;2023-08-20T21:54:32;10.85;;;6.65;;
19032;SDS011;9649;51.042;13.804;2023-08-20T21:59:35;11.15;;;6.53;;
19032;SDS011;9649;51.042;13.804;2023-08-20T22:04:39;11.18;;;6.70;;
19032;SDS011;9649;51.042;13.804;2023-08-20T22:09:42;10.48;;;6.93;;
19032;SDS011;9649;51.042;13.804;2023-08-20T22:14:45;8.65;;;6.00;;
19032;SDS011;9649;51.042;13.804;2023-08-20T22:19:49;9.13;;;5.60;;
19032;SDS011;9649;51.042;13.804;2023-08-20T22:24:52;7.18;;;5.63;;
19032;SDS011;9649;51.042;13.804;2023-08-20T22:29:55;8.60;;;5.88;;
19032;SDS011;9649;51.042;13.804;2023-08-20T22:34:59;5.75;;;4.85;;
19032;SDS011;9649;51.042;13.804;2023-08-20T22:40:02;6.88;;;5.32;;
19032;SDS011;9649;51.042;13.804;2023-08-20T22:45:09;7.88;;;5.20;;
19032;SDS011;9649;51.042;13.804;2023-08-20T22:50:13;10.73;;;5.35;;
19032;SDS011;9649;51.042;13.804;2023-08-20T22:55:16;5.07;;;4.40;;
19032;SDS011;9649;51.042;13.804;2023-08-20T23:00:19;8.20;;;4.70;;
19032;SDS011;9649;51.042;13.804;2023-08-20T23:05:24;6.28;;;4.13;;
19032;SDS011;9649;51.042;13.804;2023-08-20T23:10:27;6.55;;;4.93;;
19032;SDS011;9649;51.042;13.804;2023-08-20T23:15:30;7.13;;;4.55;;
19032;SDS011;9649;51.042;13.804;2023-08-20T23:20:34;7.65;;;4.60;;
19032;SDS011;9649;51.042;13.804;2023-08-20T23:25:36;6.38;;;4.40;;
19032;SDS011;9649;51.042;13.804;2023-08-20T23:30:41;5.18;;;4.55;;
19032;SDS011;9649;51.042;13.804;2023-08-20T23:35:45;7.18;;;4.82;;
19032;SDS011;9649;51.042;13.804;2023-08-20T23:40:48;5.35;;;4.82;;
19032;SDS011;9649;51.042;13.804;2023-08-20T23:45:51;5.82;;;4.88;;
19032;SDS011;9649;51.042;13.804;2023-08-20T23:50:55;7.63;;;5.22;;
19032;SDS011;9649;51.042;13.804;2023-08-20T23:55:58;5.35;;;4.80;;
